Assateague Island Natl Seashore, Maryland
Current Conditions -  °F | °C
As of 6:53 PM on Friday 28 Nov 2014 (Local Time) from KOXB Reporting Station
Clear Clear  
Wind Chill: 31°   Ceiling: Unl
Heat Index: 31°   Visibility: 10mi
Dew Point: 19°   Wind: 3mph
Humidity: 61%   Direction: 250°WSW
Pressure: 30.3"   Gusts: NA
Location:  38.12°N, 75.19°W
Report Text: KOXB 282353Z AUTO 25003KT 10SM CLR M01/M07 A3030 RMK AO2 SLP258 T10061072 10056 21022 51015 TSNO
Loading
Personal Weather Stations






























Interactive Weather Map New forecast layout! Learn more

10-Day Weather Forecast

Advertisements
Track Severe Weather on mobile